Saint Bonnet de Bellac- Haute Vienne - France
Donnes mto: mercredi, 18/07/2012
Date Horaire Temp. E. Hum. E. P.atmo. Pluie Vent Direction Direction Ensoleilleme Solaire P. de rose Temp au vent Rafales
18/07/2012 00:00 17,7 C 80 % 1024,9 hPa 0,0 mm 0,0 km/h (0 Bft) N-NE 22 0 min 0 W/m 14,2 C 17,7 C 0,0 km/h (0 Bft)
18/07/2012 00:10 17,4 C 81 % 1024,8 hPa 0,0 mm 0,0 km/h (0 Bft) N-NE 22 0 min 0 W/m 14,1 C 17,4 C 0,0 km/h (0 Bft)
18/07/2012 00:20 17,2 C 81 % 1024,7 hPa 0,0 mm 0,0 km/h (0 Bft) N-NE 22 0 min 0 W/m 13,9 C 17,2 C 0,0 km/h (0 Bft)
18/07/2012 00:30 16,9 C 82 % 1024,7 hPa 0,0 mm 0,0 km/h (0 Bft) N-NE 22 0 min 0 W/m 13,8 C 16,9 C 0,0 km/h (0 Bft)
18/07/2012 00:40 16,8 C 83 % 1024,6 hPa 0,0 mm 0,0 km/h (0 Bft) N-NE 22 0 min 0 W/m 13,9 C 16,8 C 0,0 km/h (0 Bft)
18/07/2012 00:50 16,6 C 84 % 1024,5 hPa 0,0 mm 0,0 km/h (0 Bft) N-NE 22 0 min 0 W/m 13,9 C 16,6 C 0,0 km/h (0 Bft)
18/07/2012 01:00 16,6 C 84 % 1024,5 hPa 0,0 mm 0,0 km/h (0 Bft) N-NE 22 0 min 0 W/m 13,9 C 16,6 C 0,0 km/h (0 Bft)
18/07/2012 01:10 16,4 C 85 % 1024,4 hPa 0,0 mm 0,0 km/h (0 Bft) N-NE 22 0 min 0 W/m 13,9 C 16,4 C 0,0 km/h (0 Bft)
18/07/2012 01:20 16,4 C 85 % 1024,2 hPa 0,0 mm 0,0 km/h (0 Bft) N-NE 22 0 min 0 W/m 13,9 C 16,4 C 0,0 km/h (0 Bft)
18/07/2012 01:30 16,3 C 85 % 1024,4 hPa 0,0 mm 0,0 km/h (0 Bft) N-NE 22 0 min 0 W/m 13,8 C 16,3 C 0,0 km/h (0 Bft)
18/07/2012 01:40 16,1 C 85 % 1024,4 hPa 0,0 mm 0,0 km/h (0 Bft) N-NE 22 0 min 0 W/m 13,6 C 16,1 C 0,0 km/h (0 Bft)
18/07/2012 01:50 15,9 C 85 % 1024,2 hPa 0,0 mm 0,0 km/h (0 Bft) N-NE 22 0 min 0 W/m 13,4 C 15,9 C 0,0 km/h (0 Bft)
18/07/2012 02:00 15,8 C 86 % 1024,0 hPa 0,0 mm 0,0 km/h (0 Bft) N-NE 22 0 min 0 W/m 13,5 C 15,8 C 0,0 km/h (0 Bft)
18/07/2012 02:10 15,8 C 86 % 1023,8 hPa 0,0 mm 0,0 km/h (0 Bft) N-NE 22 0 min 0 W/m 13,5 C 15,8 C 0,0 km/h (0 Bft)
18/07/2012 02:20 15,7 C 87 % 1023,7 hPa 0,0 mm 0,0 km/h (0 Bft) N-NE 22 0 min 0 W/m 13,5 C 15,7 C 0,0 km/h (0 Bft)
18/07/2012 02:30 15,6 C 87 % 1023,7 hPa 0,0 mm 0,0 km/h (0 Bft) N-NE 22 0 min 0 W/m 13,4 C 15,6 C 0,0 km/h (0 Bft)
18/07/2012 02:40 15,5 C 87 % 1023,7 hPa 0,0 mm 0,0 km/h (0 Bft) N-NE 22 0 min 0 W/m 13,3 C 15,5 C 0,0 km/h (0 Bft)
18/07/2012 02:50 15,4 C 87 % 1023,4 hPa 0,0 mm 0,0 km/h (0 Bft) NE 45 0 min 0 W/m 13,2 C 15,4 C 0,0 km/h (0 Bft)
18/07/2012 03:02 15,1 C 87 % 1023,4 hPa 0,0 mm 0,0 km/h (0 Bft) NE 45 0 min 0 W/m 13,0 C 15,1 C 0,0 km/h (0 Bft)
18/07/2012 03:10 14,9 C 87 % 1023,3 hPa 0,0 mm 0,0 km/h (0 Bft) NE 45 0 min 0 W/m 12,8 C 14,9 C 0,0 km/h (0 Bft)
18/07/2012 03:20 14,8 C 88 % 1023,2 hPa 0,0 mm 0,0 km/h (0 Bft) NE 45 0 min 0 W/m 12,8 C 14,8 C 0,0 km/h (0 Bft)
18/07/2012 03:30 14,8 C 88 % 1023,1 hPa 0,0 mm 0,0 km/h (0 Bft) NE 45 0 min 0 W/m 12,8 C 14,8 C 0,0 km/h (0 Bft)
18/07/2012 03:40 15,0 C 89 % 1022,8 hPa 0,0 mm 0,4 km/h (0 Bft) E-SE 112 0 min 0 W/m 13,2 C 15,0 C 4,0 km/h (1 Bft)
18/07/2012 03:50 15,1 C 89 % 1022,5 hPa 0,0 mm 1,8 km/h (1 Bft) E-SE 112 0 min 0 W/m 13,3 C 15,1 C 3,6 km/h (1 Bft)
18/07/2012 04:00 15,0 C 90 % 1022,4 hPa 0,0 mm 0,0 km/h (0 Bft) E-SE 112 0 min 0 W/m 13,4 C 15,0 C 0,0 km/h (0 Bft)
18/07/2012 04:10 14,9 C 89 % 1022,3 hPa 0,0 mm 0,0 km/h (0 Bft) E-SE 112 0 min 0 W/m 13,1 C 14,9 C 0,0 km/h (0 Bft)
18/07/2012 04:20 14,8 C 89 % 1022,1 hPa 0,0 mm 0,0 km/h (0 Bft) E-SE 112 0 min 0 W/m 13,0 C 14,8 C 0,0 km/h (0 Bft)
18/07/2012 04:30 14,5 C 89 % 1021,9 hPa 0,0 mm 2,2 km/h (1 Bft) E-SE 112 0 min 0 W/m 12,7 C 14,5 C 2,2 km/h (1 Bft)
18/07/2012 04:40 14,3 C 90 % 1021,9 hPa 0,0 mm 2,5 km/h (1 Bft) E-SE 112 0 min 0 W/m 12,7 C 14,3 C 4,3 km/h (1 Bft)
18/07/2012 04:50 14,3 C 90 % 1021,8 hPa 0,0 mm 3,6 km/h (1 Bft) E-SE 112 0 min 0 W/m 12,7 C 14,3 C 4,0 km/h (1 Bft)
18/07/2012 05:00 14,3 C 91 % 1021,8 hPa 0,0 mm 0,7 km/h (0 Bft) E-SE 112 0 min 0 W/m 12,8 C 14,3 C 3,6 km/h (1 Bft)
18/07/2012 05:10 14,2 C 91 % 1021,9 hPa 0,0 mm 0,0 km/h (0 Bft) E-SE 112 0 min 0 W/m 12,8 C 14,2 C 0,0 km/h (0 Bft)
18/07/2012 05:20 14,0 C 91 % 1021,9 hPa 0,0 mm 0,4 km/h (0 Bft) E-SE 112 0 min 0 W/m 12,6 C 14,0 C 0,4 km/h (0 Bft)
18/07/2012 05:30 13,9 C 91 % 1021,7 hPa 0,0 mm 0,0 km/h (0 Bft) E-SE 112 0 min 0 W/m 12,5 C 13,9 C 2,9 km/h (1 Bft)
18/07/2012 05:40 13,8 C 91 % 1021,5 hPa 0,0 mm 0,0 km/h (0 Bft) E-SE 112 0 min 0 W/m 12,4 C 13,8 C 0,0 km/h (0 Bft)
18/07/2012 05:50 13,6 C 91 % 1021,5 hPa 0,0 mm 0,0 km/h (0 Bft) E-SE 112 0 min 0 W/m 12,2 C 13,6 C 0,0 km/h (0 Bft)
18/07/2012 06:00 13,6 C 91 % 1021,5 hPa 0,0 mm 1,1 km/h (1 Bft) E 90 0 min 0 W/m 12,2 C 13,6 C 1,1 km/h (1 Bft)
18/07/2012 06:10 13,7 C 91 % 1021,5 hPa 0,0 mm 0,4 km/h (0 Bft) E-SE 112 0 min 0 W/m 12,3 C 13,7 C 3,6 km/h (1 Bft)
18/07/2012 06:20 13,7 C 91 % 1021,3 hPa 0,0 mm 1,8 km/h (1 Bft) SE 135 0 min 0 W/m 12,3 C 13,7 C 4,0 km/h (1 Bft)
18/07/2012 06:30 13,7 C 91 % 1021,4 hPa 0,0 mm 2,9 km/h (1 Bft) E 90 0 min 0 W/m 12,3 C 13,7 C 6,5 km/h (2 Bft)
18/07/2012 06:40 13,6 C 92 % 1021,3 hPa 0,0 mm 2,2 km/h (1 Bft) E-SE 112 0 min 0 W/m 12,3 C 13,6 C 4,3 km/h (1 Bft)
18/07/2012 06:50 13,5 C 92 % 1021,1 hPa 0,0 mm 2,9 km/h (1 Bft) E-SE 112 0 min 0 W/m 12,2 C 13,5 C 4,3 km/h (1 Bft)
18/07/2012 07:00 13,6 C 92 % 1021,0 hPa 0,0 mm 2,5 km/h (1 Bft) E-SE 112 0 min 0 W/m 12,3 C 13,6 C 4,3 km/h (1 Bft)
18/07/2012 07:10 13,6 C 92 % 1021,0 hPa 0,0 mm 3,2 km/h (1 Bft) E-SE 112 0 min 0 W/m 12,3 C 13,6 C 4,0 km/h (1 Bft)
18/07/2012 07:20 13,8 C 92 % 1021,1 hPa 0,0 mm 0,0 km/h (0 Bft) E-SE 112 0 min 0 W/m 12,5 C 13,8 C 0,0 km/h (0 Bft)
18/07/2012 07:30 13,9 C 92 % 1021,2 hPa 0,0 mm 0,0 km/h (0 Bft) E-SE 112 0 min 0 W/m 12,6 C 13,9 C 0,0 km/h (0 Bft)
18/07/2012 07:40 14,1 C 93 % 1021,1 hPa 0,0 mm 0,0 km/h (0 Bft) E-SE 112 0 min 0 W/m 13,0 C 14,1 C 0,0 km/h (0 Bft)
18/07/2012 07:50 14,4 C 93 % 1021,1 hPa 0,0 mm 0,4 km/h (0 Bft) SE 135 0 min 0 W/m 13,3 C 14,4 C 2,9 km/h (1 Bft)
18/07/2012 08:00 14,8 C 93 % 1021,0 hPa 0,0 mm 3,2 km/h (1 Bft) SE 135 0 min 0 W/m 13,7 C 14,8 C 4,0 km/h (1 Bft)
18/07/2012 08:10 15,2 C 93 % 1021,1 hPa 0,0 mm 0,0 km/h (0 Bft) SE 135 0 min 0 W/m 14,1 C 15,2 C 0,0 km/h (0 Bft)
18/07/2012 08:20 15,6 C 93 % 1021,0 hPa 0,0 mm 0,4 km/h (0 Bft) SE 135 0 min 0 W/m 14,5 C 15,6 C 0,4 km/h (0 Bft)
18/07/2012 08:30 16,3 C 93 % 1021,0 hPa 0,0 mm 0,0 km/h (0 Bft) SE 135 0 min 0 W/m 15,2 C 16,3 C 0,0 km/h (0 Bft)
18/07/2012 08:40 16,8 C 92 % 1021,0 hPa 0,0 mm 0,0 km/h (0 Bft) SE 135 0 min 0 W/m 15,5 C 16,8 C 0,0 km/h (0 Bft)
18/07/2012 08:50 17,6 C 92 % 1021,0 hPa 0,0 mm 0,0 km/h (0 Bft) SE 135 0 min 0 W/m 16,3 C 17,6 C 0,0 km/h (0 Bft)
18/07/2012 09:00 18,4 C 91 % 1021,0 hPa 0,0 mm 0,0 km/h (0 Bft) SE 135 0 min 0 W/m 16,9 C 18,4 C 0,0 km/h (0 Bft)
18/07/2012 09:10 19,1 C 90 % 1021,1 hPa 0,0 mm 0,0 km/h (0 Bft) SE 135 0 min 0 W/m 17,4 C 19,1 C 0,0 km/h (0 Bft)
18/07/2012 09:20 20,1 C 88 % 1020,9 hPa 0,0 mm 0,0 km/h (0 Bft) SE 135 0 min 0 W/m 18,0 C 20,1 C 0,0 km/h (0 Bft)
18/07/2012 09:30 20,8 C 87 % 1020,8 hPa 0,0 mm 0,0 km/h (0 Bft) SE 135 0 min 0 W/m 18,6 C 20,8 C 3,6 km/h (1 Bft)
18/07/2012 09:40 20,8 C 87 % 1020,9 hPa 0,0 mm 0,0 km/h (0 Bft) SE 135 0 min 0 W/m 18,6 C 20,8 C 3,6 km/h (1 Bft)
18/07/2012 09:50 22,4 C 87 % 1020,8 hPa 0,0 mm 0,0 km/h (0 Bft) N 360 0 min 0 W/m 20,1 C 22,4 C 0,0 km/h (0 Bft)
18/07/2012 10:00 22,4 C 87 % 1020,8 hPa 0,0 mm 0,0 km/h (0 Bft) N 360 0 min 0 W/m 20,1 C 22,4 C 0,0 km/h (0 Bft)
18/07/2012 10:10 23,9 C 87 % 1020,8 hPa 0,0 mm 0,4 km/h (0 Bft) SO 225 0 min 0 W/m 21,6 C 23,9 C 0,4 km/h (0 Bft)
18/07/2012 10:20 23,9 C 87 % 1020,6 hPa 0,0 mm 0,4 km/h (0 Bft) SO 225 0 min 0 W/m 21,6 C 23,9 C 0,4 km/h (0 Bft)
18/07/2012 10:30 23,9 C 87 % 1020,5 hPa 0,0 mm 0,4 km/h (0 Bft) N 360 0 min 0 W/m 21,6 C 23,9 C 0,4 km/h (0 Bft)
18/07/2012 10:40 25,3 C 64 % 1020,4 hPa 0,0 mm 3,6 km/h (1 Bft) SO 225 0 min 0 W/m 18,0 C 25,3 C 6,5 km/h (2 Bft)
18/07/2012 10:50 25,5 C 62 % 1020,4 hPa 0,0 mm 6,8 km/h (2 Bft) S-SO 202 0 min 0 W/m 17,7 C 25,5 C 10,8 km/h (2 Bft)
18/07/2012 11:00 25,7 C 62 % 1020,6 hPa 0,0 mm 2,9 km/h (1 Bft) S 180 0 min 0 W/m 17,9 C 25,7 C 4,3 km/h (1 Bft)
18/07/2012 11:10 26,0 C 59 % 1020,5 hPa 0,0 mm 3,6 km/h (1 Bft) S-SO 202 0 min 0 W/m 17,4 C 26,0 C 8,3 km/h (2 Bft)
18/07/2012 11:20 26,2 C 60 % 1020,4 hPa 0,0 mm 3,2 km/h (1 Bft) SO 225 0 min 0 W/m 17,8 C 26,2 C 4,0 km/h (1 Bft)
18/07/2012 11:30 26,3 C 57 % 1020,3 hPa 0,0 mm 6,5 km/h (2 Bft) SO 225 0 min 0 W/m 17,1 C 26,3 C 7,9 km/h (2 Bft)
18/07/2012 11:40 26,3 C 57 % 1020,3 hPa 0,0 mm 1,4 km/h (1 Bft) SO 225 0 min 0 W/m 17,1 C 26,3 C 3,2 km/h (1 Bft)
18/07/2012 11:50 26,5 C 56 % 1020,2 hPa 0,0 mm 2,9 km/h (1 Bft) O-SO 247 0 min 0 W/m 17,0 C 26,5 C 4,3 km/h (1 Bft)
18/07/2012 12:00 26,8 C 53 % 1020,4 hPa 0,0 mm 7,6 km/h (2 Bft) O 270 0 min 0 W/m 16,4 C 26,8 C 10,8 km/h (2 Bft)
18/07/2012 12:10 26,9 C 53 % 1020,2 hPa 0,0 mm 4,7 km/h (1 Bft) O-SO 247 0 min 0 W/m 16,5 C 26,9 C 8,3 km/h (2 Bft)
18/07/2012 12:20 27,1 C 54 % 1020,2 hPa 0,0 mm 2,5 km/h (1 Bft) S-SO 202 0 min 0 W/m 17,0 C 27,1 C 4,0 km/h (1 Bft)
18/07/2012 12:30 27,2 C 53 % 1020,2 hPa 0,0 mm 3,6 km/h (1 Bft) O 270 0 min 0 W/m 16,8 C 27,2 C 7,2 km/h (2 Bft)
18/07/2012 12:40 27,5 C 53 % 1020,2 hPa 0,0 mm 2,5 km/h (1 Bft) SO 225 0 min 0 W/m 17,0 C 27,5 C 3,6 km/h (1 Bft)
18/07/2012 12:50 27,7 C 49 % 1020,2 hPa 0,0 mm 5,4 km/h (2 Bft) O-SO 247 0 min 0 W/m 16,0 C 27,7 C 12,6 km/h (3 Bft)
18/07/2012 13:00 27,7 C 49 % 1020,1 hPa 0,0 mm 4,3 km/h (1 Bft) O-NO 292 0 min 0 W/m 16,0 C 27,7 C 8,3 km/h (2 Bft)
18/07/2012 13:10 27,8 C 50 % 1019,9 hPa 0,0 mm 3,6 km/h (1 Bft) O-SO 247 0 min 0 W/m 16,4 C 27,8 C 6,8 km/h (2 Bft)
18/07/2012 13:20 28,1 C 50 % 1019,9 hPa 0,0 mm 2,9 km/h (1 Bft) SO 225 0 min 0 W/m 16,7 C 28,1 C 7,2 km/h (2 Bft)
18/07/2012 13:30 28,2 C 50 % 1019,7 hPa 0,0 mm 1,1 km/h (1 Bft) O 270 0 min 0 W/m 16,8 C 28,2 C 6,1 km/h (2 Bft)
18/07/2012 13:40 28,1 C 46 % 1019,7 hPa 0,0 mm 1,8 km/h (1 Bft) S-SO 202 0 min 0 W/m 15,4 C 28,1 C 4,3 km/h (1 Bft)
18/07/2012 13:50 28,1 C 45 % 1019,6 hPa 0,0 mm 5,8 km/h (2 Bft) S-SO 202 0 min 0 W/m 15,0 C 28,1 C 12,2 km/h (2 Bft)
18/07/2012 14:00 28,3 C 43 % 1019,5 hPa 0,0 mm 7,6 km/h (2 Bft) O-SO 247 0 min 0 W/m 14,5 C 28,3 C 10,4 km/h (2 Bft)
18/07/2012 14:10 28,3 C 44 % 1019,5 hPa 0,0 mm 4,7 km/h (1 Bft) O-NO 292 0 min 0 W/m 14,9 C 28,3 C 10,1 km/h (2 Bft)
18/07/2012 14:20 28,4 C 42 % 1019,4 hPa 0,0 mm 5,0 km/h (1 Bft) SO 225 0 min 0 W/m 14,2 C 28,4 C 10,4 km/h (2 Bft)
18/07/2012 14:30 28,4 C 42 % 1019,3 hPa 0,0 mm 4,3 km/h (1 Bft) O-SO 247 0 min 0 W/m 14,2 C 28,4 C 4,3 km/h (1 Bft)
18/07/2012 14:40 28,5 C 42 % 1019,2 hPa 0,0 mm 5,0 km/h (1 Bft) SO 225 0 min 0 W/m 14,3 C 28,5 C 8,3 km/h (2 Bft)
18/07/2012 14:50 28,5 C 42 % 1018,9 hPa 0,0 mm 7,6 km/h (2 Bft) SO 225 0 min 0 W/m 14,3 C 28,5 C 14,8 km/h (3 Bft)
18/07/2012 15:00 28,6 C 42 % 1018,9 hPa 0,0 mm 7,2 km/h (2 Bft) S-SO 202 0 min 0 W/m 14,4 C 28,6 C 11,2 km/h (2 Bft)
18/07/2012 15:10 28,6 C 45 % 1018,9 hPa 0,0 mm 3,2 km/h (1 Bft) O-NO 292 0 min 0 W/m 15,5 C 28,6 C 12,6 km/h (3 Bft)
18/07/2012 15:20 28,9 C 43 % 1018,7 hPa 0,0 mm 4,0 km/h (1 Bft) O 270 0 min 0 W/m 15,0 C 28,9 C 6,1 km/h (2 Bft)
18/07/2012 15:30 28,9 C 41 % 1018,7 hPa 0,0 mm 3,2 km/h (1 Bft) S-SO 202 0 min 0 W/m 14,3 C 28,9 C 6,5 km/h (2 Bft)
18/07/2012 15:40 28,9 C 39 % 1018,6 hPa 0,0 mm 8,3 km/h (2 Bft) O 270 0 min 0 W/m 13,5 C 28,9 C 12,6 km/h (3 Bft)
18/07/2012 15:50 28,9 C 39 % 1018,5 hPa 0,0 mm 2,5 km/h (1 Bft) S-SO 202 0 min 0 W/m 13,5 C 28,9 C 6,5 km/h (2 Bft)
18/07/2012 16:00 28,9 C 41 % 1018,4 hPa 0,0 mm 1,8 km/h (1 Bft) SO 225 0 min 0 W/m 14,3 C 28,9 C 4,3 km/h (1 Bft)
18/07/2012 16:10 29,1 C 41 % 1018,3 hPa 0,0 mm 9,4 km/h (2 Bft) SO 225 0 min 0 W/m 14,5 C 29,1 C 13,7 km/h (3 Bft)
18/07/2012 16:20 28,9 C 42 % 1018,2 hPa 0,0 mm 1,4 km/h (1 Bft) SO 225 0 min 0 W/m 14,7 C 28,9 C 7,6 km/h (2 Bft)
18/07/2012 16:30 29,1 C 41 % 1018,1 hPa 0,0 mm 5,0 km/h (1 Bft) SO 225 0 min 0 W/m 14,5 C 29,1 C 7,9 km/h (2 Bft)
18/07/2012 16:40 29,1 C 39 % 1017,9 hPa 0,0 mm 9,0 km/h (2 Bft) SO 225 0 min 0 W/m 13,7 C 29,1 C 12,6 km/h (3 Bft)
18/07/2012 16:50 29,2 C 39 % 1017,9 hPa 0,0 mm 7,6 km/h (2 Bft) O 270 0 min 0 W/m 13,8 C 29,2 C 16,6 km/h (3 Bft)
18/07/2012 17:00 29,2 C 41 % 1017,7 hPa 0,0 mm 5,0 km/h (1 Bft) SO 225 0 min 0 W/m 14,6 C 29,2 C 9,7 km/h (2 Bft)
18/07/2012 17:10 29,1 C 40 % 1017,7 hPa 0,0 mm 6,1 km/h (2 Bft) SO 225 0 min 0 W/m 14,1 C 29,1 C 9,7 km/h (2 Bft)
18/07/2012 17:20 29,1 C 41 % 1017,6 hPa 0,0 mm 4,0 km/h (1 Bft) SO 225 0 min 0 W/m 14,5 C 29,1 C 9,4 km/h (2 Bft)
18/07/2012 17:30 29,2 C 42 % 1017,5 hPa 0,0 mm 3,2 km/h (1 Bft) SO 225 0 min 0 W/m 14,9 C 29,2 C 4,3 km/h (1 Bft)
18/07/2012 17:40 29,4 C 42 % 1017,4 hPa 0,0 mm 4,7 km/h (1 Bft) SO 225 0 min 0 W/m 15,1 C 29,4 C 8,6 km/h (2 Bft)
18/07/2012 17:50 29,4 C 43 % 1017,3 hPa 0,0 mm 2,9 km/h (1 Bft) SO 225 0 min 0 W/m 15,5 C 29,4 C 4,0 km/h (1 Bft)
18/07/2012 18:00 29,4 C 42 % 1017,0 hPa 0,0 mm 8,6 km/h (2 Bft) O-SO 247 0 min 0 W/m 15,1 C 29,4 C 8,6 km/h (2 Bft)
18/07/2012 18:10 29,3 C 43 % 1017,0 hPa 0,0 mm 4,0 km/h (1 Bft) O-SO 247 0 min 0 W/m 15,4 C 29,3 C 7,6 km/h (2 Bft)
18/07/2012 18:20 29,3 C 44 % 1016,8 hPa 0,0 mm 5,8 km/h (2 Bft) SO 225 0 min 0 W/m 15,8 C 29,3 C 7,9 km/h (2 Bft)
18/07/2012 18:30 29,1 C 43 % 1016,8 hPa 0,0 mm 3,2 km/h (1 Bft) SO 225 0 min 0 W/m 15,2 C 29,1 C 6,5 km/h (2 Bft)
18/07/2012 18:40 29,3 C 45 % 1016,6 hPa 0,0 mm 1,8 km/h (1 Bft) O-SO 247 0 min 0 W/m 16,1 C 29,3 C 2,9 km/h (1 Bft)
18/07/2012 18:50 29,4 C 45 % 1016,6 hPa 0,0 mm 1,4 km/h (1 Bft) O 270 0 min 0 W/m 16,2 C 29,4 C 8,6 km/h (2 Bft)
18/07/2012 19:00 29,3 C 45 % 1016,5 hPa 0,0 mm 6,5 km/h (2 Bft) O-SO 247 0 min 0 W/m 16,1 C 29,3 C 11,2 km/h (2 Bft)
18/07/2012 19:10 29,3 C 45 % 1016,4 hPa 0,0 mm 5,4 km/h (2 Bft) S-SO 202 0 min 0 W/m 16,1 C 29,3 C 6,8 km/h (2 Bft)
18/07/2012 19:20 29,1 C 45 % 1016,3 hPa 0,0 mm 4,7 km/h (1 Bft) O 270 0 min 0 W/m 15,9 C 29,1 C 11,2 km/h (2 Bft)
18/07/2012 19:30 28,9 C 45 % 1016,3 hPa 0,0 mm 2,5 km/h (1 Bft) SO 225 0 min 0 W/m 15,8 C 28,9 C 4,3 km/h (1 Bft)
18/07/2012 19:40 28,7 C 45 % 1016,2 hPa 0,0 mm 1,4 km/h (1 Bft) S 180 0 min 0 W/m 15,6 C 28,7 C 2,9 km/h (1 Bft)
18/07/2012 19:50 28,5 C 46 % 1016,2 hPa 0,0 mm 0,0 km/h (0 Bft) SO 225 0 min 0 W/m 15,7 C 28,5 C 0,0 km/h (0 Bft)
18/07/2012 20:00 28,2 C 46 % 1016,1 hPa 0,0 mm 7,2 km/h (2 Bft) S-SO 202 0 min 0 W/m 15,5 C 28,2 C 9,0 km/h (2 Bft)
18/07/2012 20:10 27,8 C 46 % 1016,2 hPa 0,0 mm 2,9 km/h (1 Bft) SO 225 0 min 0 W/m 15,1 C 27,8 C 4,0 km/h (1 Bft)
18/07/2012 20:20 27,1 C 45 % 1016,2 hPa 0,0 mm 3,2 km/h (1 Bft) O 270 0 min 0 W/m 14,1 C 27,1 C 12,2 km/h (2 Bft)
18/07/2012 20:30 26,4 C 45 % 1016,2 hPa 0,0 mm 4,3 km/h (1 Bft) S-SO 202 0 min 0 W/m 13,5 C 26,4 C 11,2 km/h (2 Bft)
18/07/2012 20:40 25,6 C 43 % 1016,2 hPa 0,0 mm 2,5 km/h (1 Bft) NO 315 0 min 0 W/m 12,1 C 25,6 C 10,4 km/h (2 Bft)
18/07/2012 20:50 25,0 C 43 % 1016,2 hPa 0,0 mm 0,0 km/h (0 Bft) O-NO 292 0 min 0 W/m 11,5 C 25,0 C 4,3 km/h (1 Bft)
18/07/2012 21:00 24,4 C 45 % 1016,1 hPa 0,0 mm 0,0 km/h (0 Bft) O 270 0 min 0 W/m 11,7 C 24,4 C 0,0 km/h (0 Bft)
18/07/2012 21:10 23,9 C 46 % 1016,1 hPa 0,0 mm 0,0 km/h (0 Bft) NO 315 0 min 0 W/m 11,6 C 23,9 C 0,0 km/h (0 Bft)
18/07/2012 21:20 23,4 C 46 % 1016,2 hPa 0,0 mm 1,1 km/h (1 Bft) NO 315 0 min 0 W/m 11,1 C 23,4 C 2,9 km/h (1 Bft)
18/07/2012 21:30 22,9 C 46 % 1016,1 hPa 0,0 mm 0,0 km/h (0 Bft) O-NO 292 0 min 0 W/m 10,7 C 22,9 C 0,0 km/h (0 Bft)
18/07/2012 21:40 22,4 C 48 % 1016,1 hPa 0,0 mm 0,0 km/h (0 Bft) O-NO 292 0 min 0 W/m 10,8 C 22,4 C 0,0 km/h (0 Bft)
18/07/2012 21:50 21,9 C 49 % 1016,3 hPa 0,0 mm 0,0 km/h (0 Bft) O-NO 292 0 min 0 W/m 10,7 C 21,9 C 0,0 km/h (0 Bft)
18/07/2012 22:00 21,4 C 49 % 1016,3 hPa 0,0 mm 0,7 km/h (0 Bft) SO 225 0 min 0 W/m 10,2 C 21,4 C 1,4 km/h (1 Bft)
18/07/2012 22:10 20,9 C 49 % 1016,3 hPa 0,0 mm 0,0 km/h (0 Bft) SO 225 0 min 0 W/m 9,8 C 20,9 C 0,0 km/h (0 Bft)
18/07/2012 22:20 20,5 C 50 % 1016,4 hPa 0,0 mm 0,0 km/h (0 Bft) S-SO 202 0 min 0 W/m 9,7 C 20,5 C 0,0 km/h (0 Bft)
_ Min-Heure 06:50 16:50 21:40 - 22:20 - - - - 22:20 06:50 22:20
Minimum _ 13,5 C 39 % 1016,1 hPa - 0,0 km/h (0 Bft) - - - - 9,7 C 13,5 C 0,0 km/h (0 Bft)
_ Max-Heure 18:50 08:30 00:00 22:20 16:10 - - 22:20 22:20 10:30 18:50 16:50
Maximum _ 29,4 C 93 % 1024,9 hPa 0,0 mm 9,4 km/h
SO (2 Bft)
- - 0 min 0 W/m 21,6 C 29,4 C 16,6 km/h
O (3 Bft)
Moyenne _ 22,1 C 66 % 1020,1 hPa #0,0 mm 2,2 km/h (1 Bft) SO - #0 min. 0 W/m 14,5 C 22,1 C 4,2 km/h (1 Bft)
Saint Bonnet de Bellac- Haute Vienne - France